New Windsor, Maryland
Current Conditions -  °F | °C
As of 3:00 AM on Monday 24 Nov 2014 (Local Time) from KDMW Reporting Station
Moderate Rain Moderate Rain  
Wind Chill: 57°   Ceiling: 500
Heat Index: 57°   Visibility: 4mi
Dew Point: 55°   Wind: 13mph
Humidity: 94%   Direction: 170°S
Pressure: 29.65"   Gusts: 18mph
Location:  39.54°N, 77.11°W
Report Text: KDMW 240800Z AUTO 17011G16KT 4SM RA OVC005 14/13 A2965 RMK AO2 LTG DSNT S
Loading
Personal Weather Stations






























Interactive Weather Map New forecast layout! Learn more

10-Day Weather Forecast

Advertisements
Track Severe Weather on mobile